Simmons, Missouri
Current Conditions -  °F | °C
As of 9:25 AM on Thursday 18 Dec 2014 (Local Time) from KUNO Reporting Station
Haze Haze  
Wind Chill: 29°   Ceiling: 300
Heat Index: 33°   Visibility: 3mi
Dew Point: 32°   Wind: 5mph
Humidity: 96%   Direction: 130°SE
Pressure: 30.23"   Gusts: NA
Location:  37.3091°N, 91.9516°W
Report Text: KUNO 181525Z AUTO 13004KT 3SM BR OVC003 01/00 A3023 RMK AO2 T00060000
Loading
Personal Weather Stations






























Interactive Weather Map New forecast layout! Learn more

10-Day Weather Forecast

Advertisements
Track Severe Weather on mobile